• Join FlightAware (Why Join?)
  • Login
  • US Flag 
05:11AM EDT


 

Airport Tracker/Info


-or-


 

Live Flight TrackerFlight Track Log ✈ N93XP ✈ 12-Jul-2013 ✈ KDLH - CYWG

Flight Track Log - Related Links

Times and Time Zones

All times are in EDT time to prevent confusion due to time zone crossing. See the N93XP flight status page for this flight to view local times or setup timezone preferences in your user account.

Time Position Orientation Groundspeed Altitude Reporting Facility
EDT Latitude Longitude Course Direction KTS MPH feet Rate Location/Type
06:23AM 46.9356 -92.3533 314° West 249 287 6,300  Level Minneapolis Center
06:24AM 46.9894 -92.4378 313° West 268 308 8,800 1,860 Climbing Minneapolis Center
06:25AM 47.0472 -92.5242 314° West 286 329 10,100 1,140 Climbing Minneapolis Center
06:26AM 47.1131 -92.6239 314° West 318 366 11,100 960 Climbing Minneapolis Center
06:27AM 47.1966 -92.7447 313° West  Level FlightAware Approximate
06:27AM 47.1806 -92.7264 314° West 342 394 12,100  Level Minneapolis Center
06:28AM 47.2506 -92.8342 314° West 357 411 13,100 960 Climbing Minneapolis Center
06:29AM 47.3214 -92.9411 314° West 365 420 14,100 960 Climbing Minneapolis Center
06:30AM 47.3933 -93.0489 315° West 371 427 15,100 960 Climbing Minneapolis Center
06:31AM 47.4628 -93.1564 314° West 378 435 16,100 960 Climbing Minneapolis Center
06:32AM 47.5325 -93.2656 313° West 374 430 17,100 1,080 Climbing Minneapolis Center
06:33AM 47.6175 -93.3978 314° West 373 429 18,300 1,140 Climbing Minneapolis Center
06:34AM 47.6903 -93.5114 314° West 377 434 19,400 1,020 Climbing Minneapolis Center
06:35AM 47.7636 -93.6264 314° West 382 440 20,400 960 Climbing Minneapolis Center
06:36AM 47.8375 -93.7436 313° West 387 445 21,400 1,020 Climbing Minneapolis Center
06:37AM 47.9097 -93.8578 313° West 384 442 22,500 1,020 Climbing Minneapolis Center
06:38AM 47.9808 -93.9706 313° West 377 434 23,500 960 Climbing Minneapolis Center
06:39AM 48.0508 -94.0814 313° West 371 427 24,500 960 Climbing Minneapolis Center
06:40AM 48.1183 -94.1922 312° West 364 419 25,500 900 Climbing Minneapolis Center
06:41AM 48.1836 -94.2975 313° West 353 406 26,600 900 Climbing Minneapolis Center
06:42AM 48.2617 -94.4214 313° West 343 395 27,500 660 Climbing Minneapolis Center
06:43AM 48.3261 -94.5267 313° West 343 395 28,000 240 Climbing Minneapolis Center
06:44AM 48.3919 -94.6358 312° West 349 402 28,000  Level Minneapolis Center
06:45AM 48.4606 -94.7500 312° West 362 417 28,000  Level Minneapolis Center
06:46AM 48.5336 -94.8675 313° West 378 435 28,000  Level Minneapolis Center
06:47AM 48.6078 -94.9889 313° West 388 447 28,000  Level Minneapolis Center
06:48AM 48.6811 -95.1117 312° West 393 452 28,000 -60 Level Minneapolis Center
06:49AM 48.7547 -95.2358 312° West 396 456 27,900 -60 Descending Minneapolis Center
06:50AM 48.8275 -95.3575 312° West 393 452 27,900 -840 Level Minneapolis Center
06:51AM 48.8989 -95.4767 312° West 386 444 26,300 -1,920 Descending Minneapolis Center
06:52AM 48.9772 -95.6094 312° West 389 448 24,100 -2,100 Descending Minneapolis Center
06:54AM 49.0667 -95.7667 311° West 390 449 21,300 -2,100 Descending Winnipeg Center
06:55AM 49.1333 -95.9167 304° West 390 449 19,100 -2,160 Descending Winnipeg Center
06:56AM 49.2000 -96.0167 316° Northwest 380 437 17,000 -2,100 Descending Winnipeg Center
06:57AM 49.2833 -96.1500 314° West 380 437 14,900 -2,040 Descending Winnipeg Center
06:58AM 49.3500 -96.2667 311° West 380 437 13,000 -1,920 Descending Winnipeg Center
06:59AM 49.4167 -96.3667 316° Northwest 360 414 11,100 -1,920 Descending Winnipeg Center
07:00AM 49.4833 -96.4833 311° West 320 368 9,200 -1,800 Descending Winnipeg Center
07:01AM 49.5333 -96.5500 319° Northwest 270 311 7,600 -1,740 Descending Winnipeg Center
07:02AM 49.5833 -96.6500 308° West 280 322 5,800 -1,740 Descending Winnipeg Center
07:03AM 49.6333 -96.7333 313° West 270 311 4,200 -1,200 Descending Winnipeg Center
07:04AM 49.7000 -96.8167 321° Northwest 260 299 3,500 -360 Descending Winnipeg Center
07:05AM 49.7500 -96.8667 327° Northwest 270 311 3,500  Level Winnipeg Center
07:06AM 49.8167 -96.9333 327° Northwest 280 322 3,500 -180 Level Winnipeg Center
07:07AM 49.8833 -97.0167 321° Northwest 280 322 3,200 -600 Descending Winnipeg Center
07:08AM 49.9333 -97.1000 313° West 270 311 2,300 -540 Descending Winnipeg Center
07:09AM 49.9667 -97.1667 308° West 230 265 2,200 -480 Descending Winnipeg Center
07:10AM 49.9500 -97.2333 249° West 140 161 1,400 -720 Descending Winnipeg Center
07:11AM 49.9167 -97.2333 180° South 120 138 800 -360 Descending Winnipeg Center
07:12AM 49.9000 -97.2333 180° South 50 58 700 -120 Descending Winnipeg Center